Time;durP1;ratioP1;P1;durP2;ratioP2;P2;SDS_P1;SDS_P2;PMS_P1;PMS_P2;Temp;Humidity;BMP_temperature;BMP_pressure;BME280_temperature;BME280_humidity;BME280_pressure;Samples;Min_cycle;Max_cycle;Signal;HPM_P1;HPM_P2
2023/12/05 00:01:16;;;;;;;6.30;1.60;;;;;;;;;;6306791;22;20193;-77
2023/12/05 00:03:43;;;;;;;8.03;1.80;;;;;;;;;;6306451;22;20253;-76
2023/12/05 00:06:10;;;;;;;7.63;2.00;;;;;;;;;;6306431;22;20712;-78
2023/12/05 00:08:38;;;;;;;11.23;2.10;;;;;;;;;;6306219;22;20200;-76
2023/12/05 00:11:07;;;;;;;7.17;1.97;;;;;;;;;;6306704;22;20261;-77
2023/12/05 00:13:34;;;;;;;12.27;2.13;;;;;;;;;;6306539;22;20183;-76
2023/12/05 00:16:01;;;;;;;8.53;1.87;;;;;;;;;;6306808;22;20189;-77
2023/12/05 00:18:28;;;;;;;5.93;1.97;;;;;;;;;;6306080;22;20512;-77
2023/12/05 00:20:56;;;;;;;8.83;1.90;;;;;;;;;;6305977;22;20201;-78
2023/12/05 00:23:23;;;;;;;9.33;1.70;;;;;;;;;;6306248;22;20204;-78
2023/12/05 00:25:50;;;;;;;10.77;1.90;;;;;;;;;;6306597;22;20249;-77
2023/12/05 00:28:18;;;;;;;6.70;1.70;;;;;;;;;;6306297;22;20559;-77
2023/12/05 00:30:46;;;;;;;9.20;2.07;;;;;;;;;;6306847;22;20588;-79
2023/12/05 00:33:13;;;;;;;7.70;1.70;;;;;;;;;;6306231;22;20201;-77
2023/12/05 00:35:40;;;;;;;5.97;1.43;;;;;;;;;;6305441;22;20170;-77
2023/12/05 00:38:08;;;;;;;7.33;1.93;;;;;;;;;;6306243;22;20193;-77
2023/12/05 00:40:35;;;;;;;8.03;1.70;;;;;;;;;;6306495;22;20209;-77
2023/12/05 00:43:02;;;;;;;7.43;2.00;;;;;;;;;;6305790;22;20569;-77
2023/12/05 00:45:30;;;;;;;10.70;1.70;;;;;;;;;;6306144;22;20192;-77
2023/12/05 00:47:58;;;;;;;8.47;2.13;;;;;;;;;;6305827;22;20248;-77
2023/12/05 00:50:25;;;;;;;10.17;1.67;;;;;;;;;;6306523;22;20280;-78
2023/12/05 00:52:52;;;;;;;7.37;1.60;;;;;;;;;;6306316;22;20241;-78
2023/12/05 00:55:19;;;;;;;7.53;1.93;;;;;;;;;;6306088;22;20170;-78
2023/12/05 00:57:46;;;;;;;9.47;2.03;;;;;;;;;;6305822;22;20249;-77
2023/12/05 01:00:14;;;;;;;8.33;1.77;;;;;;;;;;6305776;22;20680;-77
2023/12/05 01:02:42;;;;;;;8.10;1.70;;;;;;;;;;6306431;22;20193;-76
2023/12/05 01:05:10;;;;;;;6.80;1.60;;;;;;;;;;6305601;22;20252;-77
2023/12/05 01:07:37;;;;;;;9.60;1.87;;;;;;;;;;6305913;22;20257;-78
2023/12/05 01:10:05;;;;;;;8.13;1.63;;;;;;;;;;6306034;22;20292;-77
2023/12/05 01:12:32;;;;;;;12.40;1.77;;;;;;;;;;6305657;22;20658;-77
2023/12/05 01:14:59;;;;;;;6.90;1.33;;;;;;;;;;6305759;22;20200;-76
2023/12/05 01:17:26;;;;;;;5.77;1.60;;;;;;;;;;6305249;22;20256;-77
2023/12/05 01:19:55;;;;;;;7.57;1.70;;;;;;;;;;6305875;22;20570;-78
2023/12/05 01:22:22;;;;;;;6.77;1.40;;;;;;;;;;6305874;22;20173;-78
2023/12/05 01:24:54;;;;;;;6.57;1.63;;;;;;;;;;6305803;22;20658;-78
2023/12/05 01:27:22;;;;;;;5.60;1.33;;;;;;;;;;6306065;22;20166;-78
2023/12/05 01:29:49;;;;;;;7.87;1.47;;;;;;;;;;6305832;22;20202;-78
2023/12/05 01:32:16;;;;;;;7.50;1.80;;;;;;;;;;6305834;22;20252;-77
2023/12/05 01:34:43;;;;;;;7.63;1.40;;;;;;;;;;6305436;22;20169;-77
2023/12/05 01:37:12;;;;;;;6.50;1.40;;;;;;;;;;6305887;22;20260;-77
2023/12/05 01:39:39;;;;;;;9.00;1.47;;;;;;;;;;6305410;22;20602;-78
2023/12/05 01:42:06;;;;;;;10.63;1.30;;;;;;;;;;6305504;22;20652;-77
2023/12/05 01:44:33;;;;;;;7.30;1.30;;;;;;;;;;6305669;22;20249;-76
2023/12/05 01:47:01;;;;;;;7.80;1.50;;;;;;;;;;6305648;22;20204;-77
2023/12/05 01:49:28;;;;;;;5.40;1.50;;;;;;;;;;6305898;22;20210;-76
2023/12/05 01:51:55;;;;;;;7.30;1.30;;;;;;;;;;6305599;22;20530;-78
2023/12/05 01:54:24;;;;;;;4.80;1.10;;;;;;;;;;6306129;22;20193;-77
2023/12/05 01:56:51;;;;;;;6.77;1.30;;;;;;;;;;6305060;22;20686;-78
2023/12/05 01:59:18;;;;;;;6.90;1.63;;;;;;;;;;6304923;22;20604;-77
2023/12/05 02:01:45;;;;;;;10.40;1.33;;;;;;;;;;6305267;22;20563;-78
2023/12/05 02:04:12;;;;;;;5.90;1.40;;;;;;;;;;6305538;22;20197;-78
2023/12/05 02:06:40;;;;;;;8.90;1.87;;;;;;;;;;6305066;22;20197;-78
2023/12/05 02:09:08;;;;;;;6.57;1.50;;;;;;;;;;6305529;22;20166;-78
2023/12/05 02:11:37;;;;;;;6.73;1.23;;;;;;;;;;6305437;22;20507;-78
2023/12/05 02:14:06;;;;;;;5.63;1.20;;;;;;;;;;6305665;22;20173;-78
2023/12/05 02:16:38;;;;;;;7.13;1.33;;;;;;;;;;6304613;22;20166;-77
2023/12/05 02:19:09;;;;;;;5.97;1.33;;;;;;;;;;6305420;22;20193;-77
2023/12/05 02:21:37;;;;;;;6.30;1.40;;;;;;;;;;6304363;22;20276;-77
2023/12/05 02:24:26;;;;;;;6.53;1.10;;;;;;;;;;6306231;22;20166;-77
2023/12/05 02:26:59;;;;;;;9.23;1.40;;;;;;;;;;6305299;22;20188;-77
2023/12/05 02:29:28;;;;;;;5.00;1.30;;;;;;;;;;6304827;22;20204;-77
2023/12/05 02:31:56;;;;;;;6.57;1.57;;;;;;;;;;6305498;22;20257;-77
2023/12/05 02:34:23;;;;;;;4.80;1.53;;;;;;;;;;6305498;22;20193;-77
2023/12/05 02:36:55;;;;;;;6.47;1.30;;;;;;;;;;6305322;22;20170;-77
2023/12/05 02:39:26;;;;;;;7.00;1.30;;;;;;;;;;6305364;22;20555;-77
2023/12/05 02:41:55;;;;;;;5.00;1.17;;;;;;;;;;6305393;22;20241;-78
2023/12/05 02:44:23;;;;;;;6.40;1.30;;;;;;;;;;6305031;22;20567;-78
2023/12/05 02:46:52;;;;;;;6.10;1.30;;;;;;;;;;6305280;22;20219;-78
2023/12/05 02:49:19;;;;;;;8.13;1.30;;;;;;;;;;6305571;22;20190;-77
2023/12/05 02:51:47;;;;;;;4.40;1.23;;;;;;;;;;6304976;22;20177;-77
2023/12/05 02:54:14;;;;;;;6.27;1.33;;;;;;;;;;6305287;22;20216;-77
2023/12/05 02:56:41;;;;;;;5.27;1.23;;;;;;;;;;6305191;22;20197;-78
2023/12/05 02:59:08;;;;;;;6.33;1.60;;;;;;;;;;6305228;22;20224;-77
2023/12/05 03:01:39;;;;;;;4.97;1.20;;;;;;;;;;6305093;22;20201;-78
2023/12/05 03:04:08;;;;;;;8.37;1.67;;;;;;;;;;6305188;22;20166;-78
2023/12/05 03:06:35;;;;;;;6.10;1.30;;;;;;;;;;6304659;22;20209;-77
2023/12/05 03:09:03;;;;;;;5.83;1.33;;;;;;;;;;6305108;22;20624;-77
2023/12/05 03:11:30;;;;;;;6.50;1.53;;;;;;;;;;6306923;22;20227;-77
2023/12/05 03:13:57;;;;;;;5.73;1.10;;;;;;;;;;6307278;22;20177;-77
2023/12/05 03:16:25;;;;;;;7.80;1.30;;;;;;;;;;6307189;22;20248;-77
2023/12/05 03:18:52;;;;;;;7.20;1.60;;;;;;;;;;6306395;22;20166;-77
2023/12/05 03:21:20;;;;;;;6.63;1.43;;;;;;;;;;6307222;22;20178;-77
2023/12/05 03:23:47;;;;;;;7.53;1.30;;;;;;;;;;6306812;22;20703;-77
2023/12/05 03:26:18;;;;;;;9.13;1.83;;;;;;;;;;6306725;22;20201;-77
2023/12/05 03:28:46;;;;;;;4.50;1.50;;;;;;;;;;6306749;22;20654;-78
2023/12/05 03:31:13;;;;;;;6.27;0.90;;;;;;;;;;6306374;22;20559;-77
2023/12/05 03:33:40;;;;;;;5.77;1.40;;;;;;;;;;6306581;22;20690;-78
2023/12/05 03:36:08;;;;;;;5.30;1.27;;;;;;;;;;6306837;22;20663;-77
2023/12/05 03:38:38;;;;;;;5.93;1.30;;;;;;;;;;6306810;22;20174;-77
2023/12/05 03:41:05;;;;;;;5.87;1.20;;;;;;;;;;6307107;22;20170;-77
2023/12/05 03:43:33;;;;;;;9.23;1.37;;;;;;;;;;6306305;22;20212;-77
2023/12/05 03:46:00;;;;;;;8.00;1.17;;;;;;;;;;6306153;22;20659;-77
2023/12/05 03:48:27;;;;;;;3.37;1.00;;;;;;;;;;6306717;22;20253;-77
2023/12/05 03:50:54;;;;;;;4.87;1.10;;;;;;;;;;6306585;22;20198;-77
2023/12/05 03:53:21;;;;;;;10.03;1.23;;;;;;;;;;6306605;22;20202;-77
2023/12/05 03:55:50;;;;;;;4.33;1.10;;;;;;;;;;6306999;22;20628;-77
2023/12/05 03:58:17;;;;;;;5.27;1.10;;;;;;;;;;6306191;22;20193;-77
2023/12/05 04:00:45;;;;;;;6.83;1.50;;;;;;;;;;6306648;22;20190;-76
2023/12/05 04:03:12;;;;;;;4.30;1.20;;;;;;;;;;6306414;22;20736;-78
2023/12/05 04:05:39;;;;;;;7.13;1.33;;;;;;;;;;6306570;22;20208;-78
2023/12/05 04:08:07;;;;;;;7.27;1.30;;;;;;;;;;6307052;22;20165;-77
2023/12/05 04:10:34;;;;;;;7.97;1.40;;;;;;;;;;6306572;22;20244;-78
2023/12/05 04:13:02;;;;;;;8.23;1.20;;;;;;;;;;6306128;22;20201;-78
2023/12/05 04:15:29;;;;;;;5.87;1.20;;;;;;;;;;6306811;22;20246;-77
2023/12/05 04:17:57;;;;;;;8.70;1.20;;;;;;;;;;6306219;22;20201;-78
2023/12/05 04:20:24;;;;;;;6.03;1.33;;;;;;;;;;6306387;22;20197;-77
2023/12/05 04:22:51;;;;;;;7.20;1.30;;;;;;;;;;6306697;22;20227;-77
2023/12/05 04:25:18;;;;;;;9.57;1.23;;;;;;;;;;6306362;22;20245;-78
2023/12/05 04:27:45;;;;;;;4.87;0.90;;;;;;;;;;6306167;22;20209;-76
2023/12/05 04:30:14;;;;;;;6.13;1.10;;;;;;;;;;6306338;22;20280;-78
2023/12/05 04:32:42;;;;;;;4.43;1.10;;;;;;;;;;6306223;22;20202;-78
2023/12/05 04:35:09;;;;;;;4.53;1.10;;;;;;;;;;6306552;22;20166;-77
2023/12/05 04:37:36;;;;;;;7.10;1.43;;;;;;;;;;6306119;22;20545;-77
2023/12/05 04:40:03;;;;;;;8.33;1.47;;;;;;;;;;6306335;22;20706;-77
2023/12/05 04:42:31;;;;;;;7.50;1.50;;;;;;;;;;6306115;22;20172;-77
2023/12/05 04:44:58;;;;;;;3.73;1.40;;;;;;;;;;6305730;22;20551;-77
2023/12/05 04:47:26;;;;;;;6.40;1.27;;;;;;;;;;6306592;22;20197;-78
2023/12/05 04:49:54;;;;;;;6.30;1.20;;;;;;;;;;6306351;22;20166;-78
2023/12/05 04:52:21;;;;;;;11.93;1.67;;;;;;;;;;6306038;22;20511;-78
2023/12/05 04:54:48;;;;;;;7.07;1.50;;;;;;;;;;6305478;22;20620;-77
2023/12/05 04:57:15;;;;;;;7.33;1.40;;;;;;;;;;6305932;22;20208;-78
2023/12/05 04:59:42;;;;;;;3.43;1.30;;;;;;;;;;6305497;22;20590;-77
2023/12/05 05:02:12;;;;;;;3.87;1.40;;;;;;;;;;6305838;22;20248;-78
2023/12/05 05:04:41;;;;;;;9.60;1.53;;;;;;;;;;6306268;22;20177;-77
2023/12/05 05:07:08;;;;;;;6.43;1.63;;;;;;;;;;6306258;22;20253;-78
2023/12/05 05:09:36;;;;;;;4.23;1.13;;;;;;;;;;6305783;22;20272;-78
2023/12/05 05:12:08;;;;;;;4.93;1.33;;;;;;;;;;6305756;22;20679;-78
2023/12/05 05:14:36;;;;;;;4.23;1.83;;;;;;;;;;6306606;22;20166;-77
2023/12/05 05:17:03;;;;;;;8.43;1.70;;;;;;;;;;6306165;22;20174;-77
2023/12/05 05:19:31;;;;;;;4.67;1.33;;;;;;;;;;6305929;22;20277;-77
2023/12/05 05:21:59;;;;;;;5.23;1.80;;;;;;;;;;6306051;22;20209;-78
2023/12/05 05:24:27;;;;;;;6.33;1.70;;;;;;;;;;6305461;22;20249;-77
2023/12/05 05:26:54;;;;;;;6.03;1.90;;;;;;;;;;6306315;22;20188;-77
2023/12/05 05:29:21;;;;;;;6.90;1.90;;;;;;;;;;6306258;22;20166;-77
2023/12/05 05:31:49;;;;;;;7.43;1.80;;;;;;;;;;6305486;22;20288;-77
2023/12/05 05:34:16;;;;;;;7.30;1.60;;;;;;;;;;6306017;22;20185;-78
2023/12/05 05:36:43;;;;;;;4.90;1.27;;;;;;;;;;6305877;22;20194;-77
2023/12/05 05:39:11;;;;;;;7.53;1.50;;;;;;;;;;6305104;22;20174;-78
2023/12/05 05:41:39;;;;;;;6.03;1.40;;;;;;;;;;6306288;22;20231;-77
2023/12/05 05:44:06;;;;;;;6.93;1.70;;;;;;;;;;6305625;22;20253;-78
2023/12/05 05:46:33;;;;;;;7.83;1.80;;;;;;;;;;6305654;22;20266;-77
2023/12/05 05:49:00;;;;;;;7.50;1.50;;;;;;;;;;6305613;22;20248;-77
2023/12/05 05:51:27;;;;;;;6.87;1.80;;;;;;;;;;6305804;22;20229;-78
2023/12/05 05:53:56;;;;;;;4.27;1.70;;;;;;;;;;6305412;22;20174;-77
2023/12/05 05:56:24;;;;;;;8.53;2.00;;;;;;;;;;6305570;22;20167;-77
2023/12/05 05:58:51;;;;;;;4.63;1.67;;;;;;;;;;6305312;22;20277;-76
2023/12/05 06:01:18;;;;;;;8.30;1.80;;;;;;;;;;6305576;22;20174;-77
2023/12/05 06:03:45;;;;;;;12.30;2.20;;;;;;;;;;6305605;22;20576;-77
2023/12/05 06:06:13;;;;;;;4.63;1.43;;;;;;;;;;6305391;22;20257;-77
2023/12/05 06:08:40;;;;;;;5.70;1.53;;;;;;;;;;6305166;22;20205;-77
2023/12/05 06:11:07;;;;;;;10.30;1.73;;;;;;;;;;6305530;22;20233;-77
2023/12/05 06:13:36;;;;;;;6.83;1.87;;;;;;;;;;6305894;22;20172;-77
2023/12/05 06:16:03;;;;;;;6.00;1.93;;;;;;;;;;6305298;22;20204;-77
2023/12/05 06:18:30;;;;;;;7.57;2.50;;;;;;;;;;6305237;22;20178;-76
2023/12/05 06:20:57;;;;;;;5.13;2.03;;;;;;;;;;6304829;22;20198;-76
2023/12/05 06:23:25;;;;;;;10.43;2.10;;;;;;;;;;6304911;22;20267;-75
2023/12/05 06:25:52;;;;;;;4.17;1.70;;;;;;;;;;6305010;22;20253;-76
2023/12/05 06:28:19;;;;;;;5.83;2.10;;;;;;;;;;6305989;22;20223;-74
2023/12/05 06:30:47;;;;;;;6.67;1.83;;;;;;;;;;6304996;22;20194;-76
2023/12/05 06:33:15;;;;;;;7.50;1.50;;;;;;;;;;6303989;22;20727;-76
2023/12/05 06:35:42;;;;;;;5.50;1.57;;;;;;;;;;6304905;22;20252;-76
2023/12/05 06:38:09;;;;;;;8.87;1.50;;;;;;;;;;6305068;22;20257;-78
2023/12/05 06:40:36;;;;;;;7.70;2.03;;;;;;;;;;6304201;22;20173;-76
2023/12/05 06:43:03;;;;;;;8.23;1.70;;;;;;;;;;6304068;22;20256;-79
2023/12/05 06:45:30;;;;;;;3.33;1.50;;;;;;;;;;6304372;22;20197;-76
2023/12/05 06:47:59;;;;;;;9.70;1.50;;;;;;;;;;6304665;22;20253;-76
2023/12/05 06:50:26;;;;;;;4.80;1.50;;;;;;;;;;6304152;22;20716;-76
2023/12/05 06:52:57;;;;;;;7.47;1.63;;;;;;;;;;6305969;22;20257;-76
2023/12/05 06:55:24;;;;;;;6.23;1.50;;;;;;;;;;6305449;22;20193;-75
2023/12/05 06:57:51;;;;;;;5.80;1.50;;;;;;;;;;6305329;22;20170;-76
2023/12/05 07:00:19;;;;;;;6.40;1.50;;;;;;;;;;6304883;22;20229;-75
2023/12/05 07:02:47;;;;;;;7.57;1.70;;;;;;;;;;6305276;22;20204;-76
2023/12/05 07:05:16;;;;;;;6.03;1.50;;;;;;;;;;6304934;22;20180;-76
2023/12/05 07:07:43;;;;;;;4.90;1.60;;;;;;;;;;6304856;22;20201;-76
2023/12/05 07:10:11;;;;;;;5.10;1.40;;;;;;;;;;6305414;22;20196;-75
2023/12/05 07:12:38;;;;;;;7.07;1.30;;;;;;;;;;6305238;22;20579;-76
2023/12/05 07:15:06;;;;;;;6.53;1.70;;;;;;;;;;6305308;22;20189;-76
2023/12/05 07:17:33;;;;;;;5.93;1.40;;;;;;;;;;6305326;22;20166;-76
2023/12/05 07:20:00;;;;;;;6.93;1.83;;;;;;;;;;6305308;22;20169;-76
2023/12/05 07:22:29;;;;;;;5.50;1.77;;;;;;;;;;6305747;22;20174;-75
2023/12/05 07:24:56;;;;;;;5.57;1.57;;;;;;;;;;6304990;22;20248;-76
2023/12/05 07:27:23;;;;;;;8.93;1.90;;;;;;;;;;6305504;22;20176;-77
2023/12/05 07:29:50;;;;;;;10.50;1.90;;;;;;;;;;6305197;22;20213;-75
2023/12/05 07:32:17;;;;;;;3.73;1.53;;;;;;;;;;6305298;22;20603;-75
2023/12/05 07:34:44;;;;;;;3.80;1.33;;;;;;;;;;6304809;22;20177;-76
2023/12/05 07:37:12;;;;;;;7.73;2.07;;;;;;;;;;6304899;22;20691;-75
2023/12/05 07:39:40;;;;;;;5.73;1.37;;;;;;;;;;6304658;22;20209;-75
2023/12/05 07:42:07;;;;;;;6.77;2.70;;;;;;;;;;6304860;22;20508;-75
2023/12/05 07:44:34;;;;;;;9.20;2.43;;;;;;;;;;6305361;22;20257;-76
2023/12/05 07:47:03;;;;;;;5.17;2.37;;;;;;;;;;6305105;22;20257;-75
2023/12/05 07:49:30;;;;;;;7.30;2.50;;;;;;;;;;6304363;22;20177;-76
2023/12/05 07:51:57;;;;;;;5.80;1.90;;;;;;;;;;6305078;22;20229;-76
2023/12/05 07:54:24;;;;;;;8.67;1.87;;;;;;;;;;6305125;22;20205;-76
2023/12/05 07:56:52;;;;;;;5.50;1.67;;;;;;;;;;6307290;22;20198;-76
2023/12/05 07:59:20;;;;;;;5.77;1.70;;;;;;;;;;6306749;22;20272;-76
2023/12/05 08:01:47;;;;;;;8.13;2.93;;;;;;;;;;6306996;22;20200;-77
2023/12/05 08:04:14;;;;;;;8.00;2.53;;;;;;;;;;6306595;22;20216;-75
2023/12/05 08:06:41;;;;;;;6.73;1.60;;;;;;;;;;6307095;22;20215;-76
2023/12/05 08:09:08;;;;;;;7.63;2.03;;;;;;;;;;6307059;22;20170;-75
2023/12/05 08:11:36;;;;;;;5.17;1.63;;;;;;;;;;6306788;22;20202;-76
2023/12/05 08:14:05;;;;;;;8.73;2.00;;;;;;;;;;6307038;22;20627;-76
2023/12/05 08:16:32;;;;;;;5.40;1.70;;;;;;;;;;6306902;22;20193;-75
2023/12/05 08:18:59;;;;;;;7.60;1.97;;;;;;;;;;6305937;22;20176;-75
2023/12/05 08:21:26;;;;;;;8.57;2.10;;;;;;;;;;6306661;22;20257;-76
2023/12/05 08:23:53;;;;;;;10.07;2.53;;;;;;;;;;6306972;22;20246;-75
2023/12/05 08:26:20;;;;;;;6.77;2.03;;;;;;;;;;6306663;22;20538;-75
2023/12/05 08:28:48;;;;;;;5.23;2.00;;;;;;;;;;6306959;22;20169;-76
2023/12/05 08:31:16;;;;;;;5.90;2.20;;;;;;;;;;6306495;22;20225;-76
2023/12/05 08:33:43;;;;;;;5.70;2.03;;;;;;;;;;6306427;22;20253;-76
2023/12/05 08:36:11;;;;;;;5.37;1.60;;;;;;;;;;6306198;22;20170;-76
2023/12/05 08:38:38;;;;;;;4.60;1.67;;;;;;;;;;6306285;22;20711;-76
2023/12/05 08:41:06;;;;;;;5.60;1.70;;;;;;;;;;6306259;22;20170;-75
2023/12/05 08:43:33;;;;;;;8.07;1.83;;;;;;;;;;6306440;22;20385;-76
2023/12/05 08:46:02;;;;;;;8.17;1.70;;;;;;;;;;6306397;22;20704;-75
2023/12/05 08:48:31;;;;;;;4.63;1.73;;;;;;;;;;6306494;22;20174;-75
2023/12/05 08:50:58;;;;;;;6.80;1.77;;;;;;;;;;6306437;22;20197;-76
2023/12/05 08:53:25;;;;;;;9.20;1.90;;;;;;;;;;6306584;22;20201;-75
2023/12/05 08:55:52;;;;;;;6.77;1.60;;;;;;;;;;6306185;22;20185;-75
2023/12/05 08:58:19;;;;;;;5.93;1.60;;;;;;;;;;6306366;22;20200;-76
2023/12/05 09:00:47;;;;;;;5.43;1.87;;;;;;;;;;6306420;22;20245;-75
2023/12/05 09:03:14;;;;;;;6.27;1.87;;;;;;;;;;6305723;22;20213;-76
2023/12/05 09:05:42;;;;;;;6.80;1.87;;;;;;;;;;6306146;22;20173;-74
2023/12/05 09:08:10;;;;;;;7.00;1.80;;;;;;;;;;6306447;22;20256;-75
2023/12/05 09:10:37;;;;;;;10.50;1.60;;;;;;;;;;6306369;22;20205;-75
2023/12/05 09:13:04;;;;;;;7.40;1.40;;;;;;;;;;6306166;22;20272;-75
2023/12/05 09:15:32;;;;;;;5.00;1.37;;;;;;;;;;6305943;22;20208;-76
2023/12/05 09:17:59;;;;;;;7.00;1.60;;;;;;;;;;6306064;22;20252;-75
2023/12/05 09:20:26;;;;;;;8.50;1.50;;;;;;;;;;6306159;22;20204;-75
2023/12/05 09:22:54;;;;;;;5.57;1.70;;;;;;;;;;6305876;22;20252;-76
2023/12/05 09:25:22;;;;;;;7.67;1.73;;;;;;;;;;6306279;22;20276;-75
2023/12/05 09:27:49;;;;;;;7.17;1.70;;;;;;;;;;6305859;22;20566;-75
2023/12/05 09:30:16;;;;;;;6.60;1.47;;;;;;;;;;6305863;22;20669;-75
2023/12/05 09:32:43;;;;;;;8.00;1.50;;;;;;;;;;6306121;22;20228;-75
2023/12/05 09:35:10;;;;;;;4.80;1.40;;;;;;;;;;6305547;22;20719;-75
2023/12/05 09:37:38;;;;;;;4.40;1.27;;;;;;;;;;6305664;22;20679;-76
2023/12/05 09:40:07;;;;;;;5.13;1.37;;;;;;;;;;6306135;22;20212;-75
2023/12/05 09:42:36;;;;;;;5.40;1.37;;;;;;;;;;6306013;22;20170;-75
2023/12/05 09:45:05;;;;;;;7.07;1.67;;;;;;;;;;6305013;22;20252;-75
2023/12/05 09:47:32;;;;;;;5.87;1.67;;;;;;;;;;6306130;22;20173;-76
2023/12/05 09:49:59;;;;;;;6.00;1.50;;;;;;;;;;6305972;22;20166;-76
2023/12/05 09:52:28;;;;;;;6.03;1.23;;;;;;;;;;6305598;22;20284;-75
2023/12/05 09:54:55;;;;;;;5.97;1.40;;;;;;;;;;6305561;22;20481;-75
2023/12/05 09:57:23;;;;;;;4.67;1.50;;;;;;;;;;6306101;22;20197;-75
2023/12/05 09:59:51;;;;;;;5.67;1.33;;;;;;;;;;6305533;22;20276;-76
2023/12/05 10:02:20;;;;;;;6.67;1.50;;;;;;;;;;6305387;22;20579;-76
2023/12/05 10:04:51;;;;;;;5.33;1.67;;;;;;;;;;6305692;22;20166;-75
2023/12/05 10:07:18;;;;;;;7.20;1.40;;;;;;;;;;6305761;22;20197;-76
2023/12/05 10:09:46;;;;;;;4.63;1.47;;;;;;;;;;6305783;22;20200;-76
2023/12/05 10:12:14;;;;;;;5.73;1.43;;;;;;;;;;6305356;22;20224;-75
2023/12/05 10:14:42;;;;;;;5.87;1.73;;;;;;;;;;6305797;22;20174;-76
2023/12/05 10:17:10;;;;;;;5.63;2.07;;;;;;;;;;6305841;22;20204;-76
2023/12/05 10:19:37;;;;;;;6.10;1.67;;;;;;;;;;6304963;22;20533;-74
2023/12/05 10:22:04;;;;;;;4.73;1.60;;;;;;;;;;6305782;22;20208;-75
2023/12/05 10:24:41;;;;;;;5.13;1.67;;;;;;;;;;6305439;22;20972;-75
2023/12/05 10:27:08;;;;;;;6.50;1.53;;;;;;;;;;6305750;22;20252;-75
2023/12/05 10:29:39;;;;;;;5.37;1.57;;;;;;;;;;6304859;22;20656;-76
2023/12/05 10:32:08;;;;;;;4.67;1.50;;;;;;;;;;6305703;22;20209;-76
2023/12/05 10:34:46;;;;;;;5.17;1.30;;;;;;;;;;6305382;22;20173;-75
2023/12/05 10:37:14;;;;;;;4.47;1.30;;;;;;;;;;6305548;22;20165;-75
2023/12/05 10:39:41;;;;;;;6.27;1.53;;;;;;;;;;6305685;22;20249;-75
2023/12/05 10:42:08;;;;;;;7.90;1.20;;;;;;;;;;6305742;22;20248;-75
2023/12/05 10:44:39;;;;;;;3.67;1.30;;;;;;;;;;6304995;22;20170;-75
2023/12/05 10:47:08;;;;;;;6.13;1.60;;;;;;;;;;6305389;22;20165;-75
2023/12/05 10:49:35;;;;;;;5.77;1.40;;;;;;;;;;6305209;22;20714;-76
2023/12/05 10:52:03;;;;;;;6.13;1.60;;;;;;;;;;6305081;22;20240;-76
2023/12/05 10:54:31;;;;;;;5.70;1.63;;;;;;;;;;6305337;22;20173;-77
2023/12/05 10:56:58;;;;;;;5.97;1.73;;;;;;;;;;6304892;22;20201;-76
2023/12/05 10:59:27;;;;;;;6.33;1.30;;;;;;;;;;6305686;22;20217;-74
2023/12/05 11:01:55;;;;;;;3.57;1.30;;;;;;;;;;6305306;22;20166;-75
2023/12/05 11:04:25;;;;;;;6.03;1.43;;;;;;;;;;6305718;22;20201;-75
2023/12/05 11:06:53;;;;;;;4.40;1.50;;;;;;;;;;6305321;22;20166;-76
2023/12/05 11:09:20;;;;;;;7.97;1.80;;;;;;;;;;6305376;22;20169;-75
2023/12/05 11:11:49;;;;;;;5.93;1.50;;;;;;;;;;6304386;22;20648;-76
2023/12/05 11:14:16;;;;;;;5.07;1.97;;;;;;;;;;6304926;22;20635;-75
2023/12/05 11:16:45;;;;;;;5.20;1.53;;;;;;;;;;6305384;22;20197;-75
2023/12/05 11:19:18;;;;;;;3.97;1.67;;;;;;;;;;6305330;22;20273;-75
2023/12/05 11:21:54;;;;;;;3.53;1.57;;;;;;;;;;6305763;22;20194;-75
2023/12/05 11:24:32;;;;;;;5.53;1.80;;;;;;;;;;6305072;22;20170;-76
2023/12/05 11:27:09;;;;;;;5.10;1.60;;;;;;;;;;6304950;22;20189;-76
2023/12/05 11:29:49;;;;;;;6.67;1.87;;;;;;;;;;6305800;22;20166;-75
2023/12/05 11:32:19;;;;;;;11.10;2.00;;;;;;;;;;6307155;22;20204;-75
2023/12/05 11:34:53;;;;;;;9.00;2.30;;;;;;;;;;6307247;22;20194;-76
2023/12/05 11:37:31;;;;;;;6.07;1.70;;;;;;;;;;6306946;22;20213;-76
2023/12/05 11:39:59;;;;;;;5.80;1.60;;;;;;;;;;6307472;22;20622;-75
2023/12/05 11:42:26;;;;;;;5.90;1.40;;;;;;;;;;6307133;22;20170;-75
2023/12/05 11:44:53;;;;;;;5.97;1.63;;;;;;;;;;6306627;22;20208;-75
2023/12/05 11:47:24;;;;;;;4.80;1.30;;;;;;;;;;6307504;22;20170;-76
2023/12/05 11:49:53;;;;;;;5.37;1.83;;;;;;;;;;6306559;22;20511;-77
2023/12/05 11:52:20;;;;;;;6.80;1.73;;;;;;;;;;6306826;22;20194;-75
2023/12/05 11:54:49;;;;;;;8.10;1.90;;;;;;;;;;6307566;22;20228;-76
2023/12/05 11:57:17;;;;;;;5.95;1.67;;;;;;;;;;6306190;22;20190;-75
2023/12/05 11:59:46;;;;;;;5.57;1.80;;;;;;;;;;6306311;22;20726;-75
2023/12/05 12:02:13;;;;;;;5.87;1.37;;;;;;;;;;6307189;22;20166;-75
2023/12/05 12:04:41;;;;;;;5.60;1.40;;;;;;;;;;6306999;22;20166;-75
2023/12/05 12:07:08;;;;;;;7.17;1.80;;;;;;;;;;6306937;22;20201;-76
2023/12/05 12:09:39;;;;;;;5.53;1.50;;;;;;;;;;6306941;22;20257;-76
2023/12/05 12:12:08;;;;;;;6.40;1.40;;;;;;;;;;6306618;22;20170;-76
2023/12/05 12:14:37;;;;;;;7.47;1.70;;;;;;;;;;6306858;22;20252;-76
2023/12/05 12:17:05;;;;;;;5.25;1.70;;;;;;;;;;6306916;22;20629;-75
2023/12/05 12:19:33;;;;;;;4.20;1.30;;;;;;;;;;6307091;22;20248;-76
2023/12/05 12:22:05;;;;;;;5.85;1.58;;;;;;;;;;6306843;22;20216;-75
2023/12/05 12:24:33;;;;;;;5.72;1.95;;;;;;;;;;6306181;22;20170;-75
2023/12/05 12:27:00;;;;;;;7.38;1.80;;;;;;;;;;6307206;22;20169;-76
2023/12/05 12:29:29;;;;;;;6.10;1.73;;;;;;;;;;6306862;22;20232;-75
2023/12/05 12:32:06;;;;;;;7.37;2.03;;;;;;;;;;6306802;22;20208;-77
2023/12/05 12:34:33;;;;;;;5.80;1.50;;;;;;;;;;6306120;22;20227;-75
2023/12/05 12:37:00;;;;;;;5.40;1.27;;;;;;;;;;6306611;22;20243;-75
2023/12/05 12:39:29;;;;;;;6.80;1.70;;;;;;;;;;6306323;22;20701;-78
2023/12/05 12:41:57;;;;;;;6.17;1.90;;;;;;;;;;6306640;22;20219;-79
2023/12/05 12:44:27;;;;;;;5.63;1.30;;;;;;;;;;6306036;22;20212;-77
2023/12/05 12:46:55;;;;;;;7.80;1.60;;;;;;;;;;6306370;22;20232;-78
2023/12/05 12:49:23;;;;;;;5.40;1.70;;;;;;;;;;6306708;22;20172;-76
2023/12/05 12:51:51;;;;;;;6.77;1.50;;;;;;;;;;6307010;22;20172;-77
2023/12/05 12:54:19;;;;;;;7.70;1.53;;;;;;;;;;6306165;22;20289;-77
2023/12/05 12:56:46;;;;;;;8.63;1.77;;;;;;;;;;6306572;22;20169;-78
2023/12/05 12:59:14;;;;;;;8.47;1.80;;;;;;;;;;6305971;22;20244;-77
2023/12/05 13:01:41;;;;;;;5.63;1.67;;;;;;;;;;6306368;22;20221;-77
2023/12/05 13:04:13;;;;;;;6.07;1.57;;;;;;;;;;6306367;22;20204;-77
2023/12/05 13:06:41;;;;;;;7.27;1.67;;;;;;;;;;6306609;22;20170;-78
2023/12/05 13:09:10;;;;;;;6.53;1.67;;;;;;;;;;6306168;22;20170;-78
2023/12/05 13:11:37;;;;;;;7.60;1.80;;;;;;;;;;6306361;22;20200;-78
2023/12/05 13:14:07;;;;;;;4.97;1.70;;;;;;;;;;6305832;22;20232;-77
2023/12/05 13:16:35;;;;;;;4.90;1.30;;;;;;;;;;6305828;22;20691;-76
2023/12/05 13:19:02;;;;;;;6.50;1.23;;;;;;;;;;6306296;22;20644;-76
2023/12/05 13:21:34;;;;;;;3.90;1.23;;;;;;;;;;6306168;22;20628;-77
2023/12/05 13:24:01;;;;;;;7.17;1.20;;;;;;;;;;6306042;22;20190;-76
2023/12/05 13:26:28;;;;;;;6.73;1.20;;;;;;;;;;6305852;22;20170;-77
2023/12/05 13:28:56;;;;;;;5.27;1.40;;;;;;;;;;6306191;22;20208;-77
2023/12/05 13:31:23;;;;;;;3.83;1.40;;;;;;;;;;6306662;22;20169;-76
2023/12/05 13:33:50;;;;;;;6.73;1.23;;;;;;;;;;6305899;22;20260;-76
2023/12/05 13:36:18;;;;;;;4.67;1.50;;;;;;;;;;6305920;22;20246;-77
2023/12/05 13:38:46;;;;;;;4.33;1.10;;;;;;;;;;6306193;22;20252;-77
2023/12/05 13:41:14;;;;;;;4.73;1.33;;;;;;;;;;6306259;22;20173;-76
2023/12/05 13:43:41;;;;;;;4.67;1.13;;;;;;;;;;6305950;22;20209;-77
2023/12/05 13:46:08;;;;;;;5.77;1.10;;;;;;;;;;6306313;22;20170;-76
2023/12/05 13:48:35;;;;;;;8.03;1.67;;;;;;;;;;6306036;22;20248;-77
2023/12/05 13:51:03;;;;;;;7.30;1.40;;;;;;;;;;6306048;22;20170;-76
2023/12/05 13:53:31;;;;;;;4.10;1.20;;;;;;;;;;6305610;22;20204;-76
2023/12/05 13:55:59;;;;;;;6.03;1.37;;;;;;;;;;6305695;22;20206;-77
2023/12/05 13:58:26;;;;;;;4.97;1.10;;;;;;;;;;6305317;22;20577;-77
2023/12/05 14:00:53;;;;;;;6.63;1.80;;;;;;;;;;6306329;22;20170;-77
2023/12/05 14:03:21;;;;;;;5.47;1.33;;;;;;;;;;6305704;22;20194;-76
2023/12/05 14:05:48;;;;;;;7.00;1.30;;;;;;;;;;6305437;22;20170;-77
2023/12/05 14:08:15;;;;;;;5.57;1.20;;;;;;;;;;6305550;22;20201;-77
2023/12/05 14:10:42;;;;;;;6.47;1.10;;;;;;;;;;6306126;22;20539;-77
2023/12/05 14:13:11;;;;;;;3.43;1.10;;;;;;;;;;6305281;22;20614;-77
2023/12/05 14:15:38;;;;;;;7.10;1.33;;;;;;;;;;6305749;22;20169;-77
2023/12/05 14:18:08;;;;;;;7.30;1.90;;;;;;;;;;6305971;22;20194;-77
2023/12/05 14:20:35;;;;;;;7.60;1.77;;;;;;;;;;6305204;22;20640;-76
2023/12/05 14:23:02;;;;;;;7.13;1.60;;;;;;;;;;6305855;22;20248;-77
2023/12/05 14:25:29;;;;;;;7.27;1.30;;;;;;;;;;6305462;22;20249;-77
2023/12/05 14:27:56;;;;;;;6.50;1.10;;;;;;;;;;6305748;22;20181;-76
2023/12/05 14:30:25;;;;;;;7.97;1.60;;;;;;;;;;6306168;22;20172;-77
2023/12/05 14:32:52;;;;;;;3.13;1.00;;;;;;;;;;6305690;22;20217;-77
2023/12/05 14:35:20;;;;;;;5.43;1.23;;;;;;;;;;6305174;22;20252;-77
2023/12/05 14:37:48;;;;;;;5.17;1.33;;;;;;;;;;6305455;22;20189;-77
2023/12/05 14:40:15;;;;;;;5.30;1.40;;;;;;;;;;6305174;22;20201;-77
2023/12/05 14:42:44;;;;;;;5.87;1.60;;;;;;;;;;6306108;22;20189;-77
2023/12/05 14:45:11;;;;;;;6.90;1.80;;;;;;;;;;6305368;22;20172;-77
2023/12/05 14:47:39;;;;;;;8.53;1.90;;;;;;;;;;6305561;22;20169;-77